Time;durP1;ratioP1;P1;durP2;ratioP2;P2;SDS_P1;SDS_P2;PMS_P1;PMS_P2;Temp;Humidity;BMP_temperature;BMP_pressure;BME280_temperature;BME280_humidity;BME280_pressure;Samples;Min_cycle;Max_cycle;Signal;HPM_P1;HPM_P2
2020/12/18 00:00:47;;;;;;;17.23;14.83;;;4.20;99.90;;;;;;5078286;28;20458;-36
2020/12/18 00:03:13;;;;;;;18.00;14.90;;;4.20;99.90;;;;;;5078442;28;20503;-37
2020/12/18 00:05:40;;;;;;;19.50;14.37;;;4.20;99.90;;;;;;5078135;28;20575;-37
2020/12/18 00:08:05;;;;;;;18.10;15.57;;;4.20;99.90;;;;;;5078792;28;20427;-39
2020/12/18 00:10:32;;;;;;;16.40;14.70;;;4.20;99.90;;;;;;5078105;28;20416;-39
2020/12/18 00:12:58;;;;;;;16.33;13.60;;;4.20;99.90;;;;;;5078346;28;20548;-38
2020/12/18 00:15:26;;;;;;;16.63;14.93;;;4.10;99.90;;;;;;5078601;28;20431;-38
2020/12/18 00:17:51;;;;;;;18.10;15.33;;;4.10;99.90;;;;;;5078401;28;20496;-37
2020/12/18 00:20:17;;;;;;;18.17;16.27;;;4.10;99.90;;;;;;5077749;28;20457;-40
2020/12/18 00:22:43;;;;;;;16.00;14.40;;;4.00;99.90;;;;;;5078123;28;20177;-38
2020/12/18 00:25:09;;;;;;;16.33;14.63;;;4.00;99.90;;;;;;5078917;28;20420;-38
2020/12/18 00:27:37;;;;;;;16.90;15.20;;;4.00;99.90;;;;;;5077673;28;20177;-39
2020/12/18 00:30:03;;;;;;;15.57;13.80;;;4.00;99.90;;;;;;5078827;28;20468;-37
2020/12/18 00:32:29;;;;;;;16.30;14.60;;;4.00;99.90;;;;;;5077070;28;20419;-38
2020/12/18 00:34:55;;;;;;;21.20;16.40;;;4.00;99.90;;;;;;5060737;28;20510;-37
2020/12/18 00:37:21;;;;;;;15.47;13.97;;;4.00;99.90;;;;;;5077676;28;20169;-39
2020/12/18 00:39:47;;;;;;;15.20;13.63;;;3.90;99.90;;;;;;5078165;28;20618;-38
2020/12/18 00:42:12;;;;;;;18.20;14.53;;;3.90;99.90;;;;;;5078074;28;20247;-37
2020/12/18 00:44:38;;;;;;;16.97;14.20;;;3.90;99.90;;;;;;5077368;28;20451;-38
2020/12/18 00:47:04;;;;;;;18.83;14.77;;;3.80;99.90;;;;;;5077453;28;20181;-38
2020/12/18 00:49:30;;;;;;;15.93;14.33;;;3.80;99.90;;;;;;5077510;28;20256;-37
2020/12/18 00:51:55;;;;;;;17.17;14.53;;;3.80;99.90;;;;;;5077720;28;20552;-38
2020/12/18 00:54:21;;;;;;;15.73;13.80;;;3.70;99.90;;;;;;5077515;28;20466;-39
2020/12/18 00:56:46;;;;;;;14.60;13.10;;;3.70;99.90;;;;;;5077136;28;20449;-37
2020/12/18 00:59:12;;;;;;;16.20;14.53;;;3.70;99.90;;;;;;5077562;28;20185;-37
2020/12/18 01:01:38;;;;;;;17.27;15.47;;;3.70;99.90;;;;;;5077434;28;20204;-38
2020/12/18 01:04:04;;;;;;;16.57;14.87;;;3.70;99.90;;;;;;5081046;28;20500;-37
2020/12/18 01:06:30;;;;;;;17.23;15.43;;;3.70;99.90;;;;;;5082074;28;20177;-38
2020/12/18 01:08:57;;;;;;;16.97;14.27;;;3.70;99.90;;;;;;5064279;28;20484;-38
2020/12/18 01:11:22;;;;;;;16.63;14.77;;;3.60;99.90;;;;;;5081980;28;20323;-38
2020/12/18 01:13:48;;;;;;;17.60;15.77;;;3.60;99.90;;;;;;5081936;28;20470;-38
2020/12/18 01:16:15;;;;;;;17.13;14.70;;;3.50;99.90;;;;;;5082325;28;20494;-39
2020/12/18 01:18:41;;;;;;;16.27;14.60;;;3.50;99.90;;;;;;5081978;28;20185;-42
2020/12/18 01:21:07;;;;;;;18.57;14.60;;;3.50;99.90;;;;;;5082633;28;20473;-39
2020/12/18 01:23:32;;;;;;;16.43;14.37;;;3.40;99.90;;;;;;5081387;28;20439;-37
2020/12/18 01:25:58;;;;;;;17.00;15.30;;;3.40;99.90;;;;;;5082055;28;20457;-38
2020/12/18 01:28:24;;;;;;;15.73;13.63;;;3.30;99.90;;;;;;5081350;28;20208;-37
2020/12/18 01:30:50;;;;;;;16.50;14.90;;;3.30;99.90;;;;;;5081245;28;20202;-38
2020/12/18 01:33:16;;;;;;;17.20;15.40;;;3.20;99.90;;;;;;5080367;28;20442;-38
2020/12/18 01:35:42;;;;;;;17.83;15.33;;;3.20;99.90;;;;;;5079408;28;20504;-38
2020/12/18 01:38:08;;;;;;;20.97;16.70;;;3.20;99.90;;;;;;5081194;28;20246;-38
2020/12/18 01:40:33;;;;;;;18.77;16.07;;;3.10;99.90;;;;;;5080902;28;20243;-38
2020/12/18 01:43:03;;;;;;;19.33;15.60;;;3.10;99.90;;;;;;5081161;28;20842;-38
2020/12/18 01:45:29;;;;;;;17.67;15.03;;;3.10;99.90;;;;;;5080579;28;20169;-39
2020/12/18 01:47:55;;;;;;;16.83;15.03;;;3.20;99.90;;;;;;5080350;28;20698;-38
2020/12/18 01:50:21;;;;;;;21.30;16.40;;;3.10;99.90;;;;;;5080372;28;20282;-37
2020/12/18 01:52:46;;;;;;;17.07;14.40;;;3.10;99.90;;;;;;5062805;28;20434;-38
2020/12/18 01:55:13;;;;;;;16.10;14.40;;;3.10;99.90;;;;;;5078917;28;20591;-39
2020/12/18 01:57:40;;;;;;;21.00;17.73;;;3.10;99.90;;;;;;5061032;28;20173;-37
2020/12/18 02:00:08;;;;;;;21.03;18.60;;;3.10;99.90;;;;;;5061333;28;20462;-37
2020/12/18 02:02:34;;;;;;;21.40;17.73;;;3.20;99.90;;;;;;5079099;28;20419;-37
2020/12/18 02:04:59;;;;;;;20.87;18.50;;;3.20;99.90;;;;;;5079440;28;20426;-38
2020/12/18 02:07:28;;;;;;;22.73;18.70;;;3.30;99.90;;;;;;5079456;28;20585;-37
2020/12/18 02:09:54;;;;;;;18.83;16.83;;;3.30;99.90;;;;;;5080474;28;20476;-35
2020/12/18 02:12:20;;;;;;;22.30;15.33;;;3.30;99.90;;;;;;5080276;28;20451;-37
2020/12/18 02:14:50;;;;;;;18.90;16.07;;;3.30;99.90;;;;;;5078822;28;20439;-36
2020/12/18 02:17:17;;;;;;;18.63;16.20;;;3.30;99.90;;;;;;5080149;28;20759;-35
2020/12/18 02:19:44;;;;;;;18.90;16.53;;;3.30;99.90;;;;;;5080357;28;20434;-36
2020/12/18 02:22:21;;;;;;;17.30;15.47;;;3.30;99.90;;;;;;5062274;28;20923;-37
2020/12/18 02:25:08;;;;;;;19.87;16.70;;;3.30;99.90;;;;;;5080086;28;20818;-37
2020/12/18 02:27:38;;;;;;;18.57;15.77;;;3.40;99.90;;;;;;5080326;28;20534;-37
2020/12/18 02:33:26;;;;;;;17.90;16.07;;;3.40;99.90;;;;;;5079281;28;20476;-37
2020/12/18 02:35:51;;;;;;;20.63;17.77;;;3.40;99.90;;;;;;5079554;28;20419;-36
2020/12/18 02:38:17;;;;;;;21.97;17.63;;;3.30;99.90;;;;;;5079773;28;20188;-37
2020/12/18 02:40:43;;;;;;;20.73;16.03;;;3.30;99.90;;;;;;5079527;28;20536;-38
2020/12/18 02:43:09;;;;;;;20.63;17.63;;;3.40;99.90;;;;;;5079742;28;20179;-37
2020/12/18 02:45:34;;;;;;;17.63;15.17;;;3.40;99.90;;;;;;5080241;28;20185;-37
2020/12/18 02:48:00;;;;;;;17.53;14.83;;;3.50;99.90;;;;;;5079799;28;20593;-38
2020/12/18 02:50:26;;;;;;;16.97;14.77;;;3.50;99.90;;;;;;5062718;28;20427;-35
2020/12/18 02:52:52;;;;;;;15.50;13.80;;;3.60;99.90;;;;;;5079242;28;20257;-37
2020/12/18 02:55:18;;;;;;;16.33;14.63;;;3.70;99.90;;;;;;5079325;28;20189;-37
2020/12/18 02:57:43;;;;;;;15.87;14.27;;;3.70;99.90;;;;;;5061929;28;20239;-38
2020/12/18 03:00:09;;;;;;;16.03;14.27;;;3.70;99.90;;;;;;5079170;28;20466;-37
2020/12/18 03:02:36;;;;;;;17.77;15.90;;;3.80;99.90;;;;;;5079105;28;20200;-37
2020/12/18 03:05:03;;;;;;;17.03;15.33;;;3.90;99.90;;;;;;5079617;28;20180;-37
2020/12/18 03:07:29;;;;;;;18.67;15.70;;;4.00;99.90;;;;;;5079459;28;20419;-37
2020/12/18 03:09:54;;;;;;;17.43;15.27;;;4.00;99.90;;;;;;5078846;28;20412;-36
2020/12/18 03:12:20;;;;;;;17.87;16.10;;;4.10;99.90;;;;;;5079387;28;20216;-36
2020/12/18 03:14:46;;;;;;;16.67;14.90;;;4.20;99.90;;;;;;5079410;28;20169;-37
2020/12/18 03:17:12;;;;;;;19.03;15.83;;;4.30;99.90;;;;;;5079316;28;20422;-37
2020/12/18 03:19:38;;;;;;;15.47;13.87;;;4.30;99.90;;;;;;5078922;28;20170;-37
2020/12/18 03:22:04;;;;;;;17.17;15.40;;;4.30;99.90;;;;;;5078704;28;20470;-38
2020/12/18 03:24:29;;;;;;;16.07;14.47;;;4.40;99.90;;;;;;5079015;28;20173;-36
2020/12/18 03:26:55;;;;;;;18.10;16.03;;;4.40;99.90;;;;;;5077454;28;20419;-37
2020/12/18 03:29:21;;;;;;;16.63;14.93;;;4.40;99.90;;;;;;5078857;28;20177;-36
2020/12/18 03:31:47;;;;;;;15.33;13.80;;;4.40;99.90;;;;;;5078535;28;20473;-37
2020/12/18 03:34:12;;;;;;;17.97;16.07;;;4.50;99.90;;;;;;5079016;28;20204;-37
2020/12/18 03:36:38;;;;;;;16.43;14.73;;;4.50;99.90;;;;;;5078475;28;20427;-36
2020/12/18 03:39:05;;;;;;;14.97;13.53;;;4.60;99.90;;;;;;5060814;28;20185;-38
2020/12/18 03:41:32;;;;;;;17.33;15.10;;;4.60;99.90;;;;;;5078158;28;20227;-36
2020/12/18 03:43:57;;;;;;;15.50;14.00;;;4.70;99.90;;;;;;5078200;28;20415;-37
2020/12/18 03:46:23;;;;;;;16.53;14.80;;;4.70;99.90;;;;;;5078376;28;20427;-37
2020/12/18 03:48:49;;;;;;;15.03;13.60;;;4.70;99.90;;;;;;5060855;28;20169;-37
2020/12/18 03:51:14;;;;;;;16.57;14.73;;;4.80;99.90;;;;;;5078252;28;20496;-37
2020/12/18 03:53:40;;;;;;;16.97;15.27;;;4.80;99.90;;;;;;5078352;28;20215;-37
2020/12/18 03:56:06;;;;;;;15.43;13.80;;;4.80;99.90;;;;;;5077791;28;20438;-36
2020/12/18 03:58:31;;;;;;;16.97;15.33;;;4.80;99.90;;;;;;5078518;28;20177;-37
2020/12/18 04:00:57;;;;;;;17.80;16.10;;;4.80;99.90;;;;;;5078361;28;20243;-37
2020/12/18 04:03:23;;;;;;;14.30;12.90;;;4.80;99.90;;;;;;5077781;28;20169;-37
2020/12/18 04:05:49;;;;;;;16.10;14.40;;;4.80;99.90;;;;;;5078199;28;20493;-37
2020/12/18 04:08:17;;;;;;;17.03;15.23;;;4.80;99.90;;;;;;5078282;28;20173;-37
2020/12/18 04:10:43;;;;;;;18.10;16.20;;;4.70;99.90;;;;;;5078667;28;20442;-38
2020/12/18 04:13:09;;;;;;;17.90;15.43;;;4.60;99.90;;;;;;5077493;28;20459;-37
2020/12/18 04:15:35;;;;;;;16.80;15.00;;;4.60;99.90;;;;;;5079134;28;20501;-36
2020/12/18 04:18:00;;;;;;;18.70;15.50;;;4.50;99.90;;;;;;5077855;28;20178;-37
2020/12/18 04:20:26;;;;;;;16.17;14.47;;;4.50;99.90;;;;;;5077441;28;20209;-38
2020/12/18 04:22:52;;;;;;;16.87;15.00;;;4.50;99.90;;;;;;5077531;28;20516;-37
2020/12/18 04:25:17;;;;;;;19.30;17.27;;;4.50;99.90;;;;;;5077972;28;20430;-37
2020/12/18 04:27:43;;;;;;;19.33;17.27;;;4.50;99.90;;;;;;5077904;28;20184;-38
2020/12/18 04:30:09;;;;;;;17.00;14.00;;;4.50;99.90;;;;;;5077470;28;20179;-36
2020/12/18 04:32:35;;;;;;;19.47;17.47;;;4.40;99.90;;;;;;5077999;28;20169;-37
2020/12/18 04:35:01;;;;;;;19.17;16.87;;;4.40;99.90;;;;;;5077152;28;20410;-36
2020/12/18 04:37:27;;;;;;;17.90;16.10;;;4.40;99.90;;;;;;5077827;28;20173;-37
2020/12/18 04:39:53;;;;;;;18.03;16.23;;;4.40;99.90;;;;;;5078108;28;20204;-38
2020/12/18 04:42:19;;;;;;;18.00;15.53;;;4.40;99.90;;;;;;5077376;28;20416;-36
2020/12/18 04:44:45;;;;;;;16.80;15.00;;;4.40;99.90;;;;;;5060186;28;20482;-37
2020/12/18 04:47:14;;;;;;;16.87;15.07;;;4.40;99.90;;;;;;5077935;28;20423;-37
2020/12/18 04:49:41;;;;;;;17.17;15.20;;;4.30;99.90;;;;;;5077284;28;20435;-36
2020/12/18 04:52:13;;;;;;;16.97;15.17;;;4.30;99.90;;;;;;5077486;28;20466;-36
2020/12/18 04:54:42;;;;;;;16.03;14.33;;;4.40;99.90;;;;;;5077706;28;20499;-37
2020/12/18 04:57:10;;;;;;;16.70;14.90;;;4.40;99.90;;;;;;5076770;28;20510;-37
2020/12/18 04:59:36;;;;;;;16.27;14.73;;;4.40;99.90;;;;;;5059692;28;20707;-36
2020/12/18 05:02:02;;;;;;;16.30;14.37;;;4.40;99.90;;;;;;5059603;28;20754;-36
2020/12/18 05:04:28;;;;;;;16.97;14.63;;;4.40;99.90;;;;;;5077106;28;20514;-37
2020/12/18 05:06:55;;;;;;;15.00;13.50;;;4.40;99.90;;;;;;5076874;28;20173;-35
2020/12/18 05:09:23;;;;;;;16.63;14.90;;;4.50;99.90;;;;;;5076891;28;20415;-36
2020/12/18 05:11:51;;;;;;;16.27;14.67;;;4.50;99.90;;;;;;5076245;28;20477;-37
2020/12/18 05:14:17;;;;;;;16.30;14.20;;;4.50;99.90;;;;;;5076664;28;20530;-36
2020/12/18 05:16:43;;;;;;;17.60;15.50;;;4.60;99.90;;;;;;5076162;28;20511;-37
2020/12/18 05:19:08;;;;;;;16.53;14.60;;;4.60;99.90;;;;;;5076752;28;20219;-38
2020/12/18 05:21:38;;;;;;;16.77;15.07;;;4.60;99.90;;;;;;5076817;28;20746;-38
2020/12/18 05:24:04;;;;;;;15.73;14.13;;;4.60;99.90;;;;;;5059115;28;20227;-37
2020/12/18 05:26:30;;;;;;;16.07;14.47;;;4.70;99.90;;;;;;5076491;28;20408;-39
2020/12/18 05:29:08;;;;;;;18.80;15.30;;;4.60;99.90;;;;;;5077667;28;20452;-36
2020/12/18 05:31:34;;;;;;;18.20;15.93;;;4.50;99.90;;;;;;5077389;28;20419;-37
2020/12/18 05:34:01;;;;;;;18.63;15.63;;;4.50;99.90;;;;;;5076943;28;20438;-36
2020/12/18 05:36:27;;;;;;;17.20;15.40;;;4.30;99.90;;;;;;5077086;28;20416;-37
2020/12/18 05:38:53;;;;;;;17.83;16.13;;;4.40;99.90;;;;;;5077338;28;20432;-37
2020/12/18 05:41:23;;;;;;;17.57;15.77;;;4.40;99.90;;;;;;5076888;28;20462;-36
2020/12/18 05:43:49;;;;;;;16.70;14.93;;;4.40;99.90;;;;;;5077629;28;20613;-37
2020/12/18 05:46:15;;;;;;;17.03;15.33;;;4.40;99.90;;;;;;5076150;28;20519;-37
2020/12/18 05:48:55;;;;;;;19.10;16.57;;;4.50;99.90;;;;;;5076747;28;20430;-37
2020/12/18 05:51:40;;;;;;;16.00;14.57;;;4.50;99.90;;;;;;5061888;28;20181;-36
2020/12/18 05:54:16;;;;;;;17.50;15.80;;;4.60;99.90;;;;;;5078116;28;20538;-37
2020/12/18 05:56:46;;;;;;;16.30;14.60;;;4.60;99.90;;;;;;5079838;28;20476;-38
2020/12/18 05:59:18;;;;;;;17.30;15.53;;;4.60;99.90;;;;;;5079196;28;20483;-37
2020/12/18 06:01:48;;;;;;;16.27;14.70;;;4.70;99.90;;;;;;5078509;28;20555;-37
2020/12/18 06:04:19;;;;;;;16.10;14.50;;;4.70;99.90;;;;;;5079109;28;20426;-37
2020/12/18 06:06:47;;;;;;;16.30;14.60;;;4.80;99.90;;;;;;5078933;28;20675;-36
2020/12/18 06:09:15;;;;;;;21.20;16.30;;;4.80;99.90;;;;;;5079942;28;20431;-38
2020/12/18 06:11:41;;;;;;;16.10;14.50;;;4.80;99.90;;;;;;5080653;28;20928;-38
2020/12/18 06:14:09;;;;;;;15.83;14.27;;;4.80;99.90;;;;;;5080332;28;20754;-37
2020/12/18 06:16:49;;;;;;;17.30;14.43;;;4.80;99.90;;;;;;5080143;28;20902;-37
2020/12/18 06:19:17;;;;;;;15.93;14.23;;;4.80;99.90;;;;;;5078449;28;20433;-37
2020/12/18 06:21:52;;;;;;;15.70;14.07;;;4.80;99.90;;;;;;5077703;28;20458;-38
2020/12/18 06:24:19;;;;;;;14.10;12.60;;;4.90;99.90;;;;;;5077469;28;20430;-38
2020/12/18 06:26:53;;;;;;;14.80;13.30;;;4.90;99.90;;;;;;5076806;28;20416;-40
2020/12/18 06:29:19;;;;;;;16.20;14.07;;;4.90;99.90;;;;;;5077988;28;20481;-38
2020/12/18 06:31:45;;;;;;;15.03;13.50;;;4.90;99.90;;;;;;5060309;28;20455;-38
2020/12/18 06:34:23;;;;;;;22.70;15.80;;;4.90;99.90;;;;;;5077945;28;20455;-38
2020/12/18 06:36:52;;;;;;;16.20;14.70;;;5.00;99.90;;;;;;5079904;28;20411;-38
2020/12/18 06:39:33;;;;;;;14.53;13.13;;;5.00;99.90;;;;;;5073199;28;20447;-40
2020/12/18 06:42:19;;;;;;;15.63;14.07;;;5.00;99.90;;;;;;5070794;28;20468;-39
2020/12/18 06:44:47;;;;;;;17.10;13.90;;;5.00;99.90;;;;;;5067154;28;20454;-37
2020/12/18 06:47:34;;;;;;;16.80;15.20;;;5.00;99.90;;;;;;5077053;28;20436;-37
2020/12/18 06:50:03;;;;;;;14.20;12.80;;;5.10;99.90;;;;;;5061578;28;20545;-37
2020/12/18 06:52:55;;;;;;;15.43;13.93;;;5.10;99.90;;;;;;5079240;28;20419;-37
2020/12/18 06:55:26;;;;;;;16.10;14.40;;;5.10;99.90;;;;;;5078719;28;20426;-37
2020/12/18 06:58:10;;;;;;;16.87;15.13;;;5.10;99.90;;;;;;5078940;28;20427;-38
2020/12/18 07:00:48;;;;;;;15.00;13.60;;;5.10;99.90;;;;;;5076078;28;20451;-36
2020/12/18 07:03:44;;;;;;;16.47;14.60;;;5.10;99.90;;;;;;5079724;28;20438;-37
2020/12/18 07:06:24;;;;;;;17.17;15.10;;;5.10;99.90;;;;;;5056262;28;20424;-39
2020/12/18 07:08:50;;;;;;;17.70;15.97;;;5.10;99.90;;;;;;5071163;28;20496;-37
2020/12/18 07:11:19;;;;;;;15.43;13.83;;;5.20;99.90;;;;;;5076843;28;20471;-38
2020/12/18 07:13:47;;;;;;;15.13;13.73;;;5.20;99.90;;;;;;5076800;28;20470;-38
2020/12/18 07:16:15;;;;;;;16.60;14.90;;;5.20;99.90;;;;;;5076448;28;20747;-38
2020/12/18 07:18:42;;;;;;;15.73;14.10;;;5.30;99.90;;;;;;5059596;28;20459;-37
2020/12/18 07:21:13;;;;;;;16.00;14.50;;;5.20;99.90;;;;;;5077495;28;20881;-37
2020/12/18 07:23:44;;;;;;;16.47;14.93;;;5.20;99.90;;;;;;5078852;28;20660;-36
2020/12/18 07:26:11;;;;;;;15.33;13.83;;;5.30;99.90;;;;;;5060874;28;20416;-38
2020/12/18 07:28:39;;;;;;;16.73;14.77;;;5.30;99.90;;;;;;5078476;28;20549;-37
2020/12/18 07:31:13;;;;;;;17.60;15.40;;;5.40;99.90;;;;;;5061800;28;20769;-37
2020/12/18 07:33:39;;;;;;;17.10;15.20;;;5.30;99.90;;;;;;5078068;28;20534;-37
2020/12/18 07:36:05;;;;;;;17.37;15.40;;;5.40;99.90;;;;;;5077897;28;20454;-37
2020/12/18 07:38:33;;;;;;;16.50;14.80;;;5.40;99.90;;;;;;5078223;28;20584;-37
2020/12/18 07:41:03;;;;;;;17.00;15.30;;;5.40;99.90;;;;;;5076937;28;20463;-36
2020/12/18 07:43:30;;;;;;;17.93;16.07;;;5.50;99.90;;;;;;5078316;28;20703;-38
2020/12/18 07:45:58;;;;;;;17.50;15.77;;;5.50;99.90;;;;;;5076561;28;20906;-36
2020/12/18 07:48:29;;;;;;;20.60;16.50;;;5.50;99.90;;;;;;5077480;28;20717;-37
2020/12/18 07:51:19;;;;;;;28.93;26.17;;;5.50;99.90;;;;;;5078305;28;20703;-38
2020/12/18 07:53:55;;;;;;;36.03;32.40;;;5.60;99.90;;;;;;5077130;28;20826;-38
2020/12/18 07:56:24;;;;;;;25.00;22.60;;;5.70;99.90;;;;;;5058238;28;20443;-37
2020/12/18 07:59:04;;;;;;;21.10;19.00;;;5.70;99.90;;;;;;5059025;28;20432;-38
2020/12/18 08:01:31;;;;;;;18.23;16.40;;;5.80;99.90;;;;;;5057451;28;20491;-38
2020/12/18 08:03:59;;;;;;;17.83;15.87;;;5.90;99.90;;;;;;5057216;28;20479;-37
2020/12/18 08:06:32;;;;;;;16.17;14.57;;;5.90;99.90;;;;;;5078376;28;20415;-37
2020/12/18 08:09:02;;;;;;;16.10;13.73;;;6.00;99.90;;;;;;5077290;28;20439;-37
2020/12/18 08:11:31;;;;;;;16.50;14.80;;;6.00;99.90;;;;;;5076608;28;20467;-37
2020/12/18 08:13:58;;;;;;;15.33;13.73;;;6.10;99.90;;;;;;5071971;28;20444;-39
2020/12/18 08:16:26;;;;;;;17.97;14.80;;;6.20;99.90;;;;;;5075477;28;20738;-38
2020/12/18 08:18:52;;;;;;;16.23;14.53;;;6.30;99.90;;;;;;5077840;28;20509;-37
2020/12/18 08:21:26;;;;;;;16.03;14.33;;;6.40;99.90;;;;;;5077838;28;20866;-38
2020/12/18 08:24:14;;;;;;;15.00;13.40;;;6.40;99.90;;;;;;5057447;28;20200;-39
2020/12/18 08:26:50;;;;;;;16.50;14.80;;;6.50;99.90;;;;;;5078169;28;20415;-46
2020/12/18 08:29:18;;;;;;;16.23;14.73;;;6.70;99.90;;;;;;5077255;28;20707;-38
2020/12/18 08:31:46;;;;;;;16.10;14.30;;;6.80;99.90;;;;;;5059188;28;20634;-38
2020/12/18 08:34:14;;;;;;;15.97;14.27;;;7.00;99.90;;;;;;5075668;28;20443;-37
2020/12/18 08:36:44;;;;;;;16.30;14.70;;;7.20;99.90;;;;;;5058480;28;20419;-38
2020/12/18 08:39:11;;;;;;;15.07;13.60;;;7.30;99.90;;;;;;5075415;28;20822;-36
2020/12/18 08:41:41;;;;;;;16.43;14.80;;;7.50;99.90;;;;;;5075959;28;20838;-38
2020/12/18 08:44:08;;;;;;;15.93;14.37;;;7.60;99.90;;;;;;5075702;28;20489;-38
2020/12/18 08:46:35;;;;;;;14.53;13.13;;;7.80;99.90;;;;;;5076864;28;20415;-38
2020/12/18 08:49:09;;;;;;;14.70;12.80;;;7.90;99.90;;;;;;5077215;28;20431;-38
2020/12/18 08:51:37;;;;;;;14.97;13.50;;;8.00;99.90;;;;;;5076949;28;20423;-39
2020/12/18 08:54:03;;;;;;;15.03;13.57;;;8.10;99.90;;;;;;5076915;28;20434;-37
2020/12/18 08:56:28;;;;;;;13.73;12.37;;;8.50;99.90;;;;;;5077268;28;20850;-38
2020/12/18 08:59:03;;;;;;;16.23;13.10;;;9.30;99.90;;;;;;5076073;28;20694;-37
2020/12/18 09:01:29;;;;;;;14.10;12.80;;;10.50;98.20;;;;;;5077455;28;20472;-37
2020/12/18 09:03:54;;;;;;;13.13;11.77;;;11.50;95.70;;;;;;5076991;28;20431;-39
2020/12/18 09:06:22;;;;;;;12.70;10.43;;;12.40;93.30;;;;;;5076676;28;20200;-41
2020/12/18 09:08:48;;;;;;;12.50;10.63;;;13.10;91.60;;;;;;5063938;28;20275;-39
2020/12/18 09:11:23;;;;;;;11.60;10.47;;;13.90;90.40;;;;;;5076815;28;20506;-39
2020/12/18 09:13:49;;;;;;;11.80;10.60;;;14.60;87.90;;;;;;5076908;28;20216;-38
2020/12/18 09:16:17;;;;;;;11.23;10.23;;;15.10;85.90;;;;;;5077200;28;20466;-42
2020/12/18 09:18:46;;;;;;;12.37;10.30;;;15.70;84.10;;;;;;5076092;28;20439;-38
2020/12/18 09:21:15;;;;;;;11.77;10.77;;;16.10;81.90;;;;;;5059251;28;20466;-38
2020/12/18 09:23:43;;;;;;;11.63;10.53;;;16.40;78.80;;;;;;5076274;28;20461;-38
2020/12/18 09:26:08;;;;;;;12.07;10.87;;;16.40;77.40;;;;;;5079334;28;20426;-38
2020/12/18 09:28:39;;;;;;;11.20;10.10;;;16.80;75.90;;;;;;5080919;28;20427;-38
2020/12/18 09:31:10;;;;;;;10.63;9.70;;;17.10;73.60;;;;;;5080863;28;20411;-38
2020/12/18 09:33:39;;;;;;;10.67;9.77;;;17.40;73.40;;;;;;5045226;28;20554;-39
2020/12/18 09:36:08;;;;;;;12.03;10.93;;;17.80;71.70;;;;;;5079347;28;20419;-38
2020/12/18 09:38:39;;;;;;;10.03;9.23;;;17.60;70.10;;;;;;5078292;28;20810;-38
2020/12/18 09:41:19;;;;;;;9.67;8.87;;;17.50;70.10;;;;;;5077517;28;20466;-41
2020/12/18 09:43:45;;;;;;;11.10;10.10;;;18.00;70.00;;;;;;5077316;28;20492;-39
2020/12/18 09:46:11;;;;;;;10.77;9.87;;;18.30;68.00;;;;;;5076772;28;20411;-38
2020/12/18 09:48:38;;;;;;;10.13;9.20;;;18.80;67.20;;;;;;5078010;28;20431;-41
2020/12/18 09:51:04;;;;;;;11.10;10.10;;;19.00;65.30;;;;;;5079800;28;20430;-37
2020/12/18 09:53:30;;;;;;;10.10;9.20;;;18.80;65.00;;;;;;5080439;28;20438;-38
2020/12/18 09:55:55;;;;;;;9.90;8.80;;;19.60;62.30;;;;;;5079612;28;20556;-38
2020/12/18 09:58:21;;;;;;;10.03;9.17;;;19.70;62.80;;;;;;5078390;28;20188;-39
2020/12/18 10:00:48;;;;;;;10.20;9.40;;;20.60;60.90;;;;;;5079949;28;20287;-38
2020/12/18 10:03:13;;;;;;;9.40;8.60;;;21.20;57.30;;;;;;5079705;28;20441;-38
2020/12/18 10:05:39;;;;;;;10.80;9.90;;;21.50;56.60;;;;;;5079866;28;20415;-38
2020/12/18 10:08:05;;;;;;;10.83;9.83;;;21.50;55.60;;;;;;5076666;28;20185;-38
2020/12/18 10:10:32;;;;;;;9.30;8.50;;;21.40;54.40;;;;;;5080416;28;20185;-36
2020/12/18 10:12:58;;;;;;;9.40;8.60;;;21.20;55.90;;;;;;5061703;28;20494;-37
2020/12/18 10:15:25;;;;;;;9.37;8.13;;;21.80;54.70;;;;;;5079255;28;20674;-37
2020/12/18 10:17:51;;;;;;;9.13;8.43;;;21.20;54.00;;;;;;5079001;28;20431;-39
2020/12/18 10:20:17;;;;;;;9.23;8.33;;;21.70;54.00;;;;;;5077922;28;20866;-38
2020/12/18 10:22:42;;;;;;;8.67;7.87;;;22.00;53.30;;;;;;5077777;28;20446;-39
2020/12/18 10:25:09;;;;;;;8.43;7.73;;;22.60;52.60;;;;;;5079109;28;20481;-38
2020/12/18 10:27:35;;;;;;;8.77;8.07;;;22.80;52.00;;;;;;5079285;28;20180;-37
2020/12/18 10:30:00;;;;;;;7.87;7.17;;;23.10;51.40;;;;;;5079440;28;20811;-38
2020/12/18 10:32:27;;;;;;;8.23;7.53;;;23.40;50.70;;;;;;5079151;28;20423;-40
2020/12/18 10:34:54;;;;;;;8.30;7.67;;;23.40;50.20;;;;;;5080026;28;20504;-38
2020/12/18 10:37:21;;;;;;;7.60;6.90;;;23.10;50.10;;;;;;5060983;28;20453;-37
2020/12/18 10:39:47;;;;;;;7.10;6.50;;;23.00;49.90;;;;;;5075379;28;20431;-42
2020/12/18 10:42:13;;;;;;;7.50;6.90;;;23.00;48.70;;;;;;5080281;28;20451;-39
2020/12/18 10:44:39;;;;;;;7.57;6.87;;;22.90;49.00;;;;;;5079864;28;20794;-41
2020/12/18 10:47:05;;;;;;;7.13;6.43;;;23.00;49.00;;;;;;5078379;28;20173;-39
2020/12/18 10:49:31;;;;;;;7.70;7.00;;;23.30;48.90;;;;;;5078338;28;20759;-39
2020/12/18 10:51:57;;;;;;;6.63;6.13;;;23.70;48.30;;;;;;5078462;28;20483;-40
2020/12/18 10:54:23;;;;;;;7.23;6.63;;;23.90;47.50;;;;;;5078146;28;20431;-39
2020/12/18 10:56:50;;;;;;;8.27;6.93;;;23.90;46.80;;;;;;5078054;28;20177;-39
2020/12/18 10:59:16;;;;;;;7.00;6.40;;;24.10;47.30;;;;;;5079328;28;20431;-38
2020/12/18 11:01:42;;;;;;;6.50;6.00;;;24.50;46.80;;;;;;5068461;28;20533;-38
2020/12/18 11:04:08;;;;;;;7.83;7.07;;;23.80;45.80;;;;;;5069562;28;20724;-37
2020/12/18 11:06:39;;;;;;;6.70;6.10;;;23.80;46.90;;;;;;5057584;28;20170;-40
2020/12/18 11:09:05;;;;;;;7.77;7.07;;;24.60;46.10;;;;;;5063598;28;20500;-38
2020/12/18 11:11:32;;;;;;;8.43;7.80;;;24.80;45.70;;;;;;5074802;28;20455;-39
2020/12/18 11:13:57;;;;;;;8.00;7.30;;;24.70;45.10;;;;;;5075653;28;20457;-41
2020/12/18 11:16:23;;;;;;;7.97;7.27;;;23.30;45.50;;;;;;5076050;28;20437;-40
2020/12/18 11:18:50;;;;;;;8.17;7.50;;;23.90;46.30;;;;;;5078250;28;20461;-38
2020/12/18 11:21:16;;;;;;;7.67;7.00;;;24.10;45.80;;;;;;5078138;28;20197;-42
2020/12/18 11:23:42;;;;;;;8.03;7.27;;;23.60;46.50;;;;;;5076066;28;20545;-38
2020/12/18 11:26:08;;;;;;;7.53;6.93;;;24.50;46.20;;;;;;5065250;28;20518;-38
2020/12/18 11:28:34;;;;;;;8.70;8.00;;;24.10;46.10;;;;;;5059408;28;20201;-41
2020/12/18 11:31:02;;;;;;;10.23;9.43;;;24.90;45.20;;;;;;5078406;28;20177;-39
2020/12/18 11:33:28;;;;;;;9.00;8.30;;;24.90;44.60;;;;;;5073201;28;20505;-39
2020/12/18 11:35:54;;;;;;;9.27;8.57;;;24.60;44.70;;;;;;5065630;28;20420;-40
2020/12/18 11:38:21;;;;;;;9.10;8.10;;;24.20;45.40;;;;;;5059131;28;20181;-39
2020/12/18 11:40:46;;;;;;;9.77;8.77;;;24.20;45.70;;;;;;5065366;28;20604;-39
2020/12/18 11:43:12;;;;;;;9.13;8.33;;;25.00;44.80;;;;;;5077069;28;20438;-39
2020/12/18 11:45:38;;;;;;;9.57;8.77;;;25.50;44.30;;;;;;5077969;28;20169;-40
2020/12/18 11:48:04;;;;;;;8.77;8.07;;;25.70;43.10;;;;;;5077368;28;20181;-39
2020/12/18 11:50:30;;;;;;;9.50;8.60;;;25.70;43.20;;;;;;5078244;28;20549;-38
2020/12/18 11:52:59;;;;;;;13.23;9.03;;;25.60;43.30;;;;;;5078051;28;20516;-39
2020/12/18 11:55:26;;;;;;;10.20;9.40;;;25.40;43.10;;;;;;5077453;28;20407;-42
2020/12/18 11:57:54;;;;;;;9.63;8.57;;;25.20;43.70;;;;;;5074893;28;20423;-39
2020/12/18 12:00:20;;;;;;;9.40;8.60;;;25.60;43.20;;;;;;5076244;28;20442;-38
2020/12/18 12:02:50;;;;;;;9.70;8.90;;;25.90;42.70;;;;;;5076567;28;20854;-41
2020/12/18 12:05:17;;;;;;;9.90;9.10;;;26.00;42.00;;;;;;5059586;28;20693;-40
2020/12/18 12:07:43;;;;;;;9.00;8.30;;;25.80;42.10;;;;;;5077155;28;20434;-38
2020/12/18 12:10:10;;;;;;;8.73;7.93;;;25.50;42.40;;;;;;5076388;28;20458;-39
2020/12/18 12:12:36;;;;;;;10.10;7.63;;;25.40;43.00;;;;;;5077596;28;20880;-40
2020/12/18 12:15:04;;;;;;;9.50;8.57;;;25.60;42.70;;;;;;5078224;28;20428;-40
2020/12/18 12:17:30;;;;;;;7.60;7.00;;;25.60;42.70;;;;;;5077754;28;20412;-40
2020/12/18 12:19:56;;;;;;;8.43;7.73;;;26.10;42.20;;;;;;5058330;28;20474;-42
2020/12/18 12:22:23;;;;;;;7.20;6.50;;;26.20;42.00;;;;;;5077193;28;20869;-41
2020/12/18 12:24:54;;;;;;;7.93;7.23;;;26.40;41.60;;;;;;5077671;28;20238;-38
2020/12/18 12:27:21;;;;;;;6.87;6.37;;;26.30;40.60;;;;;;5078018;28;20418;-39
2020/12/18 12:29:47;;;;;;;8.07;7.37;;;25.90;41.30;;;;;;5077508;28;20572;-40
2020/12/18 12:32:13;;;;;;;8.00;6.83;;;26.20;41.40;;;;;;5076400;28;20826;-38
2020/12/18 12:34:38;;;;;;;5.97;5.57;;;26.30;41.50;;;;;;5076141;28;20439;-40
2020/12/18 12:37:04;;;;;;;7.03;6.43;;;26.80;41.20;;;;;;5076679;28;20515;-40
2020/12/18 12:39:30;;;;;;;6.63;6.03;;;27.40;40.30;;;;;;5076001;28;20180;-40
2020/12/18 12:41:55;;;;;;;6.80;5.87;;;27.10;39.90;;;;;;5076968;28;20212;-39
2020/12/18 12:44:21;;;;;;;7.97;7.27;;;27.60;38.90;;;;;;5075967;28;20501;-40